Time;durP1;ratioP1;P1;durP2;ratioP2;P2;SDS_P1;SDS_P2;PMS_P1;PMS_P2;Temp;Humidity;BMP_temperature;BMP_pressure;BME280_temperature;BME280_humidity;BME280_pressure;Samples;Min_cycle;Max_cycle;Signal;HPM_P1;HPM_P2
2020/12/07 00:03:45;;;;;;;5.00;4.60;;;5.00;99.90;;;;;;10518320;28;20204;-79
2020/12/07 00:08:48;;;;;;;4.27;3.97;;;5.00;99.90;;;;;;10501467;28;20210;-79
2020/12/07 00:13:49;;;;;;;4.30;4.00;;;5.00;99.90;;;;;;10528379;28;20215;-79
2020/12/07 00:18:52;;;;;;;4.53;4.13;;;5.00;99.90;;;;;;10545387;28;20237;-79
2020/12/07 00:23:53;;;;;;;4.47;4.10;;;5.10;99.90;;;;;;10541630;28;20222;-79
2020/12/07 00:28:58;;;;;;;4.00;3.70;;;5.10;99.90;;;;;;10550613;28;20319;-80
2020/12/07 00:34:01;;;;;;;4.43;4.13;;;5.10;99.90;;;;;;10440576;22;20264;-81
2020/12/07 00:39:03;;;;;;;3.87;3.57;;;5.10;99.90;;;;;;10407745;28;20208;-83
2020/12/07 00:44:05;;;;;;;4.57;4.03;;;5.10;99.90;;;;;;10446203;28;20217;-83
2020/12/07 00:49:07;;;;;;;4.20;3.90;;;5.20;99.90;;;;;;10438229;28;20192;-83
2020/12/07 00:54:09;;;;;;;3.80;3.50;;;5.20;99.90;;;;;;10446816;28;20367;-83
2020/12/07 00:59:11;;;;;;;4.00;3.40;;;5.20;99.90;;;;;;10443791;28;20197;-83
2020/12/07 01:04:14;;;;;;;3.40;3.10;;;5.20;99.90;;;;;;10462301;28;20617;-82
2020/12/07 01:09:18;;;;;;;3.70;3.40;;;5.20;99.90;;;;;;10463487;28;20266;-82
2020/12/07 01:14:21;;;;;;;3.20;3.00;;;5.20;99.90;;;;;;10461910;28;20244;-80
2020/12/07 01:19:26;;;;;;;3.40;3.10;;;5.20;99.90;;;;;;10453152;28;20226;-81
2020/12/07 01:24:28;;;;;;;3.10;2.90;;;5.20;99.90;;;;;;10476826;28;20193;-82
2020/12/07 01:29:35;;;;;;;3.60;3.30;;;5.10;99.90;;;;;;10442191;28;20197;-83
2020/12/07 01:34:37;;;;;;;2.90;2.70;;;5.10;99.90;;;;;;10443545;28;20238;-81
2020/12/07 01:39:39;;;;;;;4.10;3.43;;;5.10;99.90;;;;;;10457813;28;20216;-82
2020/12/07 01:44:42;;;;;;;3.43;3.13;;;5.00;99.90;;;;;;10451384;28;20633;-83
2020/12/07 01:49:48;;;;;;;3.97;3.67;;;5.00;99.90;;;;;;10441691;28;20221;-83
2020/12/07 01:54:51;;;;;;;3.50;3.20;;;5.10;99.90;;;;;;10448159;28;20200;-80
2020/12/07 01:59:54;;;;;;;4.20;3.90;;;5.10;99.90;;;;;;10452428;28;20224;-81
2020/12/07 02:04:59;;;;;;;3.43;3.23;;;5.10;99.90;;;;;;10455258;28;20347;-81
2020/12/07 02:10:00;;;;;;;3.63;3.33;;;5.10;99.90;;;;;;10475847;28;20204;-82
2020/12/07 02:15:03;;;;;;;4.13;3.83;;;5.10;99.90;;;;;;10479167;28;20762;-81
2020/12/07 02:20:06;;;;;;;4.50;4.20;;;5.00;99.90;;;;;;10483706;28;20217;-82
2020/12/07 02:25:19;;;;;;;4.47;4.17;;;5.00;99.90;;;;;;10437209;28;20197;-82
2020/12/07 02:30:22;;;;;;;4.60;4.30;;;5.00;99.90;;;;;;10500080;28;20308;-80
2020/12/07 02:35:27;;;;;;;4.30;4.00;;;5.00;99.90;;;;;;10465571;28;20200;-81
2020/12/07 02:40:29;;;;;;;4.50;4.10;;;5.00;99.90;;;;;;10435837;28;20209;-80
2020/12/07 02:45:34;;;;;;;4.27;3.87;;;4.90;99.90;;;;;;10441355;28;20284;-80
2020/12/07 02:50:41;;;;;;;3.90;3.60;;;4.90;99.90;;;;;;10457591;28;20287;-82
2020/12/07 02:55:48;;;;;;;4.10;3.70;;;4.90;99.90;;;;;;10450050;28;20205;-81
2020/12/07 03:00:49;;;;;;;3.83;3.60;;;4.80;99.90;;;;;;10437688;28;20283;-82
2020/12/07 03:05:54;;;;;;;4.43;4.13;;;4.70;99.90;;;;;;10456544;28;20650;-81
2020/12/07 03:10:56;;;;;;;4.30;4.00;;;4.60;99.90;;;;;;10461434;28;20253;-82
2020/12/07 03:16:03;;;;;;;4.97;4.60;;;4.60;99.90;;;;;;10476209;28;20201;-80
2020/12/07 03:21:09;;;;;;;4.40;4.10;;;4.50;99.90;;;;;;10443370;28;20209;-81
2020/12/07 03:26:13;;;;;;;4.80;4.50;;;4.40;99.90;;;;;;10461022;28;20629;-82
2020/12/07 03:31:17;;;;;;;4.70;4.40;;;4.40;99.90;;;;;;10478563;28;20229;-80
2020/12/07 03:36:21;;;;;;;4.67;4.37;;;4.30;99.90;;;;;;10457869;28;20224;-81
2020/12/07 03:41:25;;;;;;;5.17;4.77;;;4.30;99.90;;;;;;10459004;28;20209;-80
2020/12/07 03:46:29;;;;;;;3.93;3.73;;;4.30;99.90;;;;;;10473337;28;20220;-81
2020/12/07 03:51:32;;;;;;;6.07;5.57;;;4.20;99.90;;;;;;10441782;28;20237;-81
2020/12/07 03:56:35;;;;;;;4.27;4.03;;;4.20;99.90;;;;;;10460392;28;20220;-81
2020/12/07 04:01:38;;;;;;;4.80;4.50;;;4.10;99.90;;;;;;10459993;28;20630;-82
2020/12/07 04:06:45;;;;;;;4.70;4.40;;;4.00;99.90;;;;;;10447098;28;20675;-82
2020/12/07 04:11:53;;;;;;;4.60;4.30;;;4.00;99.90;;;;;;10463187;28;20275;-82
2020/12/07 04:16:55;;;;;;;4.90;4.60;;;4.10;99.90;;;;;;10477287;28;20720;-82
2020/12/07 04:21:57;;;;;;;5.20;4.80;;;4.20;99.90;;;;;;10460212;28;20216;-82
2020/12/07 04:26:59;;;;;;;5.00;4.70;;;4.30;99.90;;;;;;10459922;28;20190;-81
2020/12/07 04:32:00;;;;;;;5.20;4.80;;;4.40;99.90;;;;;;10458740;28;20815;-81
2020/12/07 04:37:03;;;;;;;4.70;4.40;;;4.40;99.90;;;;;;10459743;28;20196;-82
2020/12/07 04:42:05;;;;;;;5.07;4.67;;;4.40;99.90;;;;;;10456556;28;20594;-81
2020/12/07 04:47:07;;;;;;;4.40;4.10;;;4.30;99.90;;;;;;10438768;28;20273;-79
2020/12/07 04:52:10;;;;;;;6.13;4.30;;;4.30;99.90;;;;;;10457384;28;20787;-80
2020/12/07 04:57:15;;;;;;;7.27;5.50;;;4.40;99.90;;;;;;10457800;28;20205;-80
2020/12/07 05:02:16;;;;;;;4.47;4.17;;;4.50;99.90;;;;;;10435127;28;20787;-80
2020/12/07 05:07:19;;;;;;;5.20;4.83;;;4.50;99.90;;;;;;10466869;28;20214;-81
2020/12/07 05:12:23;;;;;;;5.30;4.90;;;4.60;99.90;;;;;;10473859;28;20224;-80
2020/12/07 05:17:25;;;;;;;5.57;5.17;;;4.60;99.90;;;;;;10457351;28;20190;-79
2020/12/07 05:22:29;;;;;;;4.73;4.27;;;4.70;99.90;;;;;;10441778;28;20598;-80
2020/12/07 05:27:33;;;;;;;5.17;4.70;;;4.80;99.90;;;;;;10457754;28;20200;-80
2020/12/07 05:32:36;;;;;;;5.30;4.80;;;4.80;99.90;;;;;;10459548;28;20240;-80
2020/12/07 05:37:39;;;;;;;5.73;5.30;;;4.90;99.90;;;;;;10459643;28;20222;-80
2020/12/07 05:42:41;;;;;;;5.37;4.97;;;4.90;99.90;;;;;;10456572;28;20259;-80
2020/12/07 05:47:46;;;;;;;5.20;4.80;;;5.00;99.90;;;;;;10453370;28;20194;-80
2020/12/07 05:52:49;;;;;;;5.20;4.80;;;5.00;99.90;;;;;;10449655;28;20224;-79
2020/12/07 05:58:03;;;;;;;5.87;5.37;;;5.00;99.90;;;;;;10454711;28;20257;-79
2020/12/07 06:03:06;;;;;;;5.70;5.20;;;5.10;99.90;;;;;;10449327;28;20217;-80
2020/12/07 06:08:12;;;;;;;6.07;5.57;;;5.10;99.90;;;;;;10445693;28;20197;-79
2020/12/07 06:13:18;;;;;;;5.80;5.30;;;5.10;99.90;;;;;;10465759;28;20248;-81
2020/12/07 06:18:28;;;;;;;5.53;5.07;;;5.10;99.90;;;;;;10447379;28;20257;-80
2020/12/07 06:23:32;;;;;;;6.23;5.67;;;5.10;99.90;;;;;;10445193;28;20582;-80
2020/12/07 06:28:35;;;;;;;5.40;4.93;;;5.10;99.90;;;;;;10434031;28;20226;-83
2020/12/07 06:33:42;;;;;;;8.27;7.47;;;5.10;99.90;;;;;;10460170;28;20221;-82
2020/12/07 06:38:46;;;;;;;8.87;8.07;;;5.10;99.90;;;;;;10442863;28;20197;-82
2020/12/07 06:43:57;;;;;;;7.30;6.60;;;5.00;99.90;;;;;;10442989;28;20228;-80
2020/12/07 06:48:59;;;;;;;7.87;7.20;;;4.90;99.90;;;;;;10441042;28;20193;-83
2020/12/07 06:54:12;;;;;;;6.87;6.27;;;4.80;99.90;;;;;;10420635;28;20236;-80
2020/12/07 06:59:16;;;;;;;7.90;7.10;;;4.80;99.90;;;;;;10456766;28;20201;-80
2020/12/07 07:04:20;;;;;;;6.80;6.20;;;4.80;99.90;;;;;;10421931;28;20284;-80
2020/12/07 07:09:23;;;;;;;8.70;7.80;;;4.90;99.90;;;;;;10422604;28;20197;-78
2020/12/07 07:14:24;;;;;;;8.03;7.33;;;4.90;99.90;;;;;;10439941;28;20267;-81
2020/12/07 07:19:26;;;;;;;7.73;7.03;;;4.90;99.90;;;;;;10424556;28;20224;-80
2020/12/07 07:24:34;;;;;;;7.57;6.87;;;5.00;99.90;;;;;;10440678;28;20193;-80
2020/12/07 07:29:36;;;;;;;6.60;6.00;;;5.00;99.90;;;;;;10441090;28;20225;-79
2020/12/07 07:34:43;;;;;;;7.53;6.80;;;5.10;99.90;;;;;;10424278;28;20220;-80
2020/12/07 07:39:47;;;;;;;7.00;6.40;;;5.10;99.90;;;;;;10441701;28;20229;-79
2020/12/07 07:44:49;;;;;;;6.23;5.63;;;5.20;99.90;;;;;;10439590;28;20224;-80
2020/12/07 07:50:14;;;;;;;6.37;5.83;;;5.20;99.90;;;;;;10440444;28;20259;-79
2020/12/07 08:16:56;;;;;;;6.50;5.90;;;5.60;99.90;;;;;;10428845;28;20208;-79
2020/12/07 08:22:12;;;;;;;5.37;4.87;;;5.60;99.90;;;;;;10446755;28;20292;-79
2020/12/07 08:27:14;;;;;;;5.10;4.70;;;5.70;99.90;;;;;;10443610;28;20193;-79
2020/12/07 08:32:23;;;;;;;7.70;5.37;;;5.70;99.90;;;;;;10464534;28;20221;-80
2020/12/07 08:37:25;;;;;;;4.70;4.23;;;5.80;99.90;;;;;;10464494;28;20261;-80
2020/12/07 08:42:27;;;;;;;5.37;4.87;;;5.80;99.90;;;;;;10430627;28;20213;-79
2020/12/07 08:47:29;;;;;;;5.00;4.60;;;5.90;99.90;;;;;;10465101;28;20193;-80
2020/12/07 08:52:31;;;;;;;5.70;5.10;;;6.00;99.90;;;;;;10463782;28;20232;-80
2020/12/07 08:57:33;;;;;;;4.73;4.33;;;6.10;99.90;;;;;;10445845;28;20247;-80
2020/12/07 09:02:35;;;;;;;5.10;4.60;;;6.10;99.90;;;;;;10430183;28;20228;-80
2020/12/07 09:07:36;;;;;;;4.97;4.43;;;6.30;99.90;;;;;;10464904;28;20205;-80
2020/12/07 09:12:39;;;;;;;5.00;4.57;;;6.50;99.90;;;;;;10462073;28;20213;-80
2020/12/07 09:17:41;;;;;;;4.90;4.50;;;6.50;99.90;;;;;;10462344;28;20197;-79
2020/12/07 09:22:43;;;;;;;4.83;4.43;;;6.60;99.90;;;;;;10429663;28;20260;-81
2020/12/07 09:27:45;;;;;;;5.10;4.70;;;6.60;99.90;;;;;;10441933;28;20208;-82
2020/12/07 09:32:47;;;;;;;6.27;4.50;;;6.50;99.90;;;;;;10459459;28;20241;-82
2020/12/07 09:37:49;;;;;;;4.90;4.50;;;6.40;99.90;;;;;;10477302;28;20199;-81
2020/12/07 09:42:51;;;;;;;5.70;5.20;;;6.40;99.90;;;;;;10457035;28;20224;-82
2020/12/07 09:47:53;;;;;;;5.00;4.60;;;6.30;99.90;;;;;;10444690;28;20224;-81
2020/12/07 09:52:55;;;;;;;5.40;5.00;;;6.30;99.90;;;;;;10442429;28;20267;-82
2020/12/07 09:57:57;;;;;;;4.77;4.37;;;6.30;99.90;;;;;;10444488;28;20206;-81
2020/12/07 10:02:59;;;;;;;5.33;4.93;;;6.30;99.90;;;;;;10439903;28;20229;-82
2020/12/07 10:08:01;;;;;;;6.17;5.10;;;6.40;99.90;;;;;;10459694;28;20190;-80
2020/12/07 10:13:03;;;;;;;5.30;4.80;;;6.40;99.90;;;;;;10439608;28;20300;-81
2020/12/07 10:18:05;;;;;;;4.17;3.87;;;6.40;99.90;;;;;;10471717;28;20571;-81
2020/12/07 10:23:07;;;;;;;4.27;3.97;;;6.40;99.90;;;;;;10414073;28;20268;-80
2020/12/07 10:28:09;;;;;;;5.23;4.83;;;6.50;99.90;;;;;;10439622;28;20221;-80
2020/12/07 10:33:11;;;;;;;3.70;3.47;;;6.50;99.90;;;;;;10456687;28;20279;-80
2020/12/07 10:38:13;;;;;;;4.37;4.07;;;6.50;99.90;;;;;;10438962;28;20232;-80
2020/12/07 10:43:15;;;;;;;4.07;3.77;;;6.50;99.90;;;;;;10437580;28;20693;-81
2020/12/07 10:48:17;;;;;;;4.07;3.77;;;6.60;99.90;;;;;;10429894;28;20235;-81
2020/12/07 10:53:19;;;;;;;4.17;3.87;;;6.60;99.90;;;;;;10448589;28;20224;-80
2020/12/07 10:58:21;;;;;;;7.80;4.93;;;6.70;99.90;;;;;;10433439;28;20396;-82
2020/12/07 11:03:23;;;;;;;4.70;4.40;;;6.90;99.90;;;;;;10446797;28;20267;-80
2020/12/07 11:08:32;;;;;;;4.83;4.43;;;6.80;99.90;;;;;;10430730;28;20263;-82
2020/12/07 11:13:35;;;;;;;4.10;3.80;;;6.80;99.90;;;;;;10430623;28;20217;-80
2020/12/07 11:18:36;;;;;;;5.03;4.63;;;6.70;99.90;;;;;;10431000;28;20193;-80
2020/12/07 11:23:40;;;;;;;4.07;3.77;;;6.70;99.90;;;;;;10431072;28;20239;-83
2020/12/07 11:28:45;;;;;;;4.33;4.03;;;6.70;99.90;;;;;;10418159;28;20201;-82
2020/12/07 11:33:47;;;;;;;3.83;3.60;;;6.80;99.90;;;;;;10441656;28;20312;-79
2020/12/07 11:38:53;;;;;;;4.00;3.70;;;6.70;99.90;;;;;;10437950;28;20236;-80
2020/12/07 11:44:08;;;;;;;3.33;3.13;;;6.80;99.90;;;;;;10456709;28;20248;-79
2020/12/07 11:49:09;;;;;;;4.13;3.73;;;6.90;99.90;;;;;;10457432;28;20280;-80
2020/12/07 11:54:11;;;;;;;4.37;4.07;;;6.90;99.90;;;;;;10443090;28;20217;-79
2020/12/07 11:59:15;;;;;;;4.30;3.90;;;7.00;99.90;;;;;;10427700;28;20291;-79
2020/12/07 12:04:17;;;;;;;4.87;4.57;;;7.00;99.90;;;;;;10462507;28;20288;-79
2020/12/07 12:09:18;;;;;;;5.67;5.10;;;7.00;99.90;;;;;;10442574;28;20201;-79
2020/12/07 12:14:21;;;;;;;3.60;3.40;;;7.20;99.90;;;;;;10443332;28;20213;-79
2020/12/07 12:19:22;;;;;;;3.73;3.43;;;7.20;99.90;;;;;;10459735;28;20576;-79
2020/12/07 12:24:24;;;;;;;3.13;2.93;;;7.20;99.90;;;;;;10460350;28;20200;-79
2020/12/07 12:29:27;;;;;;;4.23;3.93;;;7.20;99.90;;;;;;10460122;28;20654;-79
2020/12/07 12:34:28;;;;;;;4.03;3.63;;;7.20;99.90;;;;;;10468161;28;20217;-80
2020/12/07 12:39:30;;;;;;;5.63;3.93;;;7.30;99.90;;;;;;10444756;28;20288;-80
2020/12/07 12:44:32;;;;;;;4.20;3.90;;;7.40;99.90;;;;;;10455347;28;20728;-80
2020/12/07 12:49:34;;;;;;;4.67;4.27;;;7.60;99.90;;;;;;10435897;28;20635;-79
2020/12/07 12:54:36;;;;;;;3.47;3.23;;;7.50;99.90;;;;;;10452669;28;20223;-80
2020/12/07 12:59:39;;;;;;;4.23;3.83;;;7.50;99.90;;;;;;10417835;28;20271;-80
2020/12/07 13:04:41;;;;;;;3.70;3.50;;;7.40;99.90;;;;;;10456884;28;20216;-80
2020/12/07 13:09:43;;;;;;;3.90;3.60;;;7.30;99.90;;;;;;10453844;28;20233;-80
2020/12/07 13:14:45;;;;;;;3.63;3.33;;;7.30;99.90;;;;;;10452296;28;20221;-81
2020/12/07 13:19:47;;;;;;;4.20;3.90;;;7.40;99.90;;;;;;10434528;28;20246;-80
2020/12/07 13:24:53;;;;;;;3.63;3.33;;;7.30;99.90;;;;;;10433555;28;20197;-79
2020/12/07 13:29:56;;;;;;;3.33;3.13;;;7.20;99.90;;;;;;10451239;28;20893;-80
2020/12/07 13:34:59;;;;;;;5.30;4.90;;;7.00;99.90;;;;;;10438289;28;20252;-79
2020/12/07 13:40:01;;;;;;;5.13;4.83;;;6.80;99.90;;;;;;10454461;28;20296;-80
2020/12/07 13:45:04;;;;;;;5.00;4.60;;;6.90;99.90;;;;;;10453178;28;20225;-80
2020/12/07 13:50:05;;;;;;;3.67;3.40;;;6.80;99.90;;;;;;10436240;28;20641;-79
2020/12/07 13:55:07;;;;;;;4.00;3.70;;;6.80;99.90;;;;;;10456240;28;20670;-80
2020/12/07 14:00:10;;;;;;;4.40;4.10;;;6.80;99.90;;;;;;10438729;28;20323;-80
2020/12/07 14:05:12;;;;;;;5.20;4.40;;;6.80;99.90;;;;;;10460091;28;20248;-80
2020/12/07 14:10:14;;;;;;;4.30;4.00;;;6.80;99.90;;;;;;10460070;28;20224;-79
2020/12/07 14:15:16;;;;;;;4.20;3.90;;;6.80;99.90;;;;;;10456912;28;20291;-79
2020/12/07 14:20:22;;;;;;;3.73;3.53;;;6.80;99.90;;;;;;10457864;28;20329;-80
2020/12/07 14:25:52;;;;;;;3.20;3.00;;;6.70;99.90;;;;;;10440210;28;20225;-80
2020/12/07 14:41:44;;;;;;;3.20;3.00;;;6.50;99.90;;;;;;10408626;28;20221;-82
2020/12/07 14:46:48;;;;;;;3.40;3.20;;;6.40;99.90;;;;;;10453374;28;20697;-82
2020/12/07 14:51:57;;;;;;;3.17;2.97;;;6.40;99.90;;;;;;10433525;28;20780;-82
2020/12/07 14:57:14;;;;;;;3.90;3.60;;;6.40;99.90;;;;;;10434435;28;20204;-82
2020/12/07 15:18:15;;;;;;;4.83;4.50;;;6.30;99.90;;;;;;10455686;28;20220;-82
2020/12/07 15:23:17;;;;;;;3.93;3.63;;;6.20;99.90;;;;;;10464492;28;20221;-81
2020/12/07 15:28:18;;;;;;;6.13;5.30;;;6.20;99.90;;;;;;10451846;28;20250;-82
2020/12/07 15:33:21;;;;;;;3.50;3.30;;;6.20;99.90;;;;;;10470956;28;20708;-81
2020/12/07 15:38:23;;;;;;;4.27;3.97;;;6.10;99.90;;;;;;10453130;28;20201;-82
2020/12/07 15:43:24;;;;;;;6.70;6.10;;;6.10;99.90;;;;;;10451809;28;20249;-81
2020/12/07 15:48:27;;;;;;;4.50;4.10;;;6.10;99.90;;;;;;10444582;28;20320;-80
2020/12/07 15:53:29;;;;;;;5.03;4.27;;;6.20;99.90;;;;;;10426369;28;20259;-80
2020/12/07 15:58:31;;;;;;;4.50;4.20;;;6.20;99.90;;;;;;10466746;28;20201;-80
2020/12/07 16:03:34;;;;;;;4.70;4.23;;;6.30;99.90;;;;;;10444504;28;20275;-80
2020/12/07 16:08:36;;;;;;;4.83;4.43;;;6.30;99.90;;;;;;10464157;28;20202;-80
2020/12/07 16:13:37;;;;;;;5.00;4.60;;;6.30;99.90;;;;;;10426909;28;20688;-81
2020/12/07 16:18:40;;;;;;;5.47;4.97;;;6.30;99.90;;;;;;10449105;28;20193;-81
2020/12/07 16:23:42;;;;;;;5.43;4.90;;;6.30;99.90;;;;;;10430413;28;20217;-81
2020/12/07 16:28:44;;;;;;;6.07;5.47;;;6.20;99.90;;;;;;10448516;28;20284;-81
2020/12/07 16:33:47;;;;;;;5.70;5.20;;;6.20;99.90;;;;;;10479875;28;20286;-81
2020/12/07 16:38:50;;;;;;;4.97;4.57;;;6.20;99.90;;;;;;10469546;28;20599;-80
2020/12/07 16:43:51;;;;;;;6.00;5.40;;;6.20;99.90;;;;;;10444247;28;20615;-81
2020/12/07 16:48:55;;;;;;;8.73;7.83;;;6.20;99.90;;;;;;10463430;28;20239;-80
2020/12/07 16:53:56;;;;;;;7.53;6.83;;;6.20;99.90;;;;;;10443074;28;20239;-80
2020/12/07 16:58:58;;;;;;;6.27;5.43;;;6.10;99.90;;;;;;10430304;28;20201;-81
2020/12/07 17:04:00;;;;;;;6.63;6.00;;;6.20;99.90;;;;;;10443981;28;20217;-81
2020/12/07 17:09:03;;;;;;;5.20;4.80;;;6.20;99.90;;;;;;10461368;28;20732;-81
2020/12/07 17:14:05;;;;;;;6.17;5.60;;;6.20;99.90;;;;;;10425416;28;20319;-81
2020/12/07 17:19:07;;;;;;;6.60;6.00;;;6.30;99.90;;;;;;10442774;28;20205;-80
2020/12/07 17:24:09;;;;;;;6.27;5.67;;;6.30;99.90;;;;;;10461109;28;20222;-80
2020/12/07 17:29:12;;;;;;;5.50;5.00;;;6.30;99.90;;;;;;10441411;28;20284;-80
2020/12/07 17:34:14;;;;;;;6.17;5.67;;;6.30;99.90;;;;;;10440543;28;20255;-80
2020/12/07 17:39:16;;;;;;;6.13;5.63;;;6.30;99.90;;;;;;10458388;28;20197;-80
2020/12/07 17:44:18;;;;;;;6.97;6.37;;;6.20;99.90;;;;;;10440225;28;20199;-80
2020/12/07 17:49:20;;;;;;;6.60;6.03;;;6.20;99.90;;;;;;10440500;28;20201;-79
2020/12/07 17:54:22;;;;;;;6.80;6.20;;;6.20;99.90;;;;;;10451810;28;20304;-80
2020/12/07 17:59:24;;;;;;;7.00;6.33;;;6.20;99.90;;;;;;10434525;28;20225;-80
2020/12/07 18:04:26;;;;;;;6.13;5.63;;;6.20;99.90;;;;;;10451156;28;20268;-80
2020/12/07 18:09:31;;;;;;;7.63;6.80;;;6.20;99.90;;;;;;10435008;28;20259;-79
2020/12/07 18:14:33;;;;;;;7.40;6.70;;;6.10;99.90;;;;;;10454983;28;20221;-80
2020/12/07 18:19:35;;;;;;;8.97;8.10;;;5.90;99.90;;;;;;10453178;28;20236;-81
2020/12/07 18:24:37;;;;;;;7.07;6.47;;;5.80;99.90;;;;;;10442051;28;20312;-81
2020/12/07 18:29:39;;;;;;;7.90;7.10;;;5.70;99.90;;;;;;10437189;28;20642;-80
2020/12/07 18:34:42;;;;;;;7.50;6.80;;;5.60;99.90;;;;;;10465980;28;20216;-82
2020/12/07 18:39:43;;;;;;;8.37;7.57;;;5.60;99.90;;;;;;10462284;28;20226;-82
2020/12/07 18:44:45;;;;;;;7.47;6.77;;;5.50;99.90;;;;;;10410314;28;20194;-81
2020/12/07 18:49:48;;;;;;;11.00;8.57;;;5.50;99.90;;;;;;10451573;28;20282;-81
2020/12/07 18:54:50;;;;;;;30.30;22.67;;;5.40;99.90;;;;;;10462495;28;20221;-82
2020/12/07 18:59:51;;;;;;;11.50;10.37;;;5.20;99.90;;;;;;10457015;28;20766;-82
2020/12/07 19:04:54;;;;;;;10.07;9.17;;;5.10;99.90;;;;;;10423357;28;20205;-82
2020/12/07 19:09:56;;;;;;;10.00;8.77;;;5.10;99.90;;;;;;10441557;28;20225;-81
2020/12/07 19:14:57;;;;;;;9.70;8.80;;;5.10;99.90;;;;;;10426069;28;20316;-82
2020/12/07 19:20:00;;;;;;;9.60;8.63;;;5.10;99.90;;;;;;10441109;28;20260;-81
2020/12/07 19:25:02;;;;;;;9.77;8.87;;;5.00;99.90;;;;;;10455930;28;20572;-82
2020/12/07 19:30:05;;;;;;;10.57;9.57;;;5.00;99.90;;;;;;10451141;28;20256;-81
2020/12/07 19:35:07;;;;;;;8.97;8.17;;;5.00;99.90;;;;;;10442756;28;20300;-82
2020/12/07 19:40:09;;;;;;;9.13;8.23;;;4.90;99.90;;;;;;10431196;28;20225;-82
2020/12/07 19:45:11;;;;;;;10.00;9.00;;;4.80;99.90;;;;;;10468862;28;20268;-82
2020/12/07 19:50:14;;;;;;;10.83;9.73;;;4.70;99.90;;;;;;10458083;28;20221;-82
2020/12/07 19:55:16;;;;;;;12.70;10.87;;;4.60;99.90;;;;;;10475727;28;20661;-81
2020/12/07 20:00:18;;;;;;;10.97;9.90;;;4.50;99.90;;;;;;10457341;28;20217;-82
2020/12/07 20:05:20;;;;;;;11.97;10.83;;;4.50;99.90;;;;;;10454657;28;20229;-81
2020/12/07 20:10:22;;;;;;;11.73;10.60;;;4.50;99.90;;;;;;10443597;28;20290;-81
2020/12/07 20:15:24;;;;;;;11.13;10.00;;;4.60;99.90;;;;;;10443196;28;20248;-82
2020/12/07 20:20:27;;;;;;;12.83;11.53;;;4.60;99.90;;;;;;10483238;28;20256;-81
2020/12/07 20:25:28;;;;;;;12.93;11.73;;;4.70;99.90;;;;;;10448606;28;20225;-82
2020/12/07 20:30:30;;;;;;;12.70;11.50;;;4.80;99.90;;;;;;10469697;28;20217;-81
2020/12/07 20:35:33;;;;;;;12.80;11.50;;;4.90;99.90;;;;;;10454179;28;20284;-82
2020/12/07 20:40:34;;;;;;;13.70;12.30;;;5.00;99.90;;;;;;10437185;28;20657;-81
2020/12/07 20:45:36;;;;;;;11.67;10.57;;;5.00;99.90;;;;;;10461316;28;20228;-83
2020/12/07 20:50:39;;;;;;;11.50;10.40;;;5.00;99.90;;;;;;10462605;28;20209;-81
2020/12/07 20:55:41;;;;;;;13.60;11.20;;;4.90;99.90;;;;;;10448649;28;20272;-81
2020/12/07 21:00:43;;;;;;;12.50;11.03;;;4.90;99.90;;;;;;10463270;28;20221;-82
2020/12/07 21:05:46;;;;;;;10.70;9.53;;;4.70;99.90;;;;;;10448580;28;20201;-82
2020/12/07 21:10:47;;;;;;;10.90;9.77;;;4.60;99.90;;;;;;10466037;28;20328;-82
2020/12/07 21:15:49;;;;;;;12.07;10.77;;;4.50;99.90;;;;;;10466771;28;20224;-83
2020/12/07 21:20:52;;;;;;;13.20;11.80;;;4.30;99.90;;;;;;10468947;28;20224;-82
2020/12/07 21:25:53;;;;;;;13.20;11.10;;;4.20;99.90;;;;;;10469437;28;20574;-82
2020/12/07 21:30:55;;;;;;;14.03;12.43;;;4.10;99.90;;;;;;10471636;28;20248;-82
2020/12/07 21:35:57;;;;;;;13.70;11.60;;;4.00;99.90;;;;;;10440957;28;20221;-82
2020/12/07 21:40:59;;;;;;;13.00;11.60;;;3.90;99.90;;;;;;10451612;28;20213;-82
2020/12/07 21:46:01;;;;;;;13.33;11.93;;;3.90;99.90;;;;;;10453930;28;20198;-82
2020/12/07 21:51:03;;;;;;;15.40;13.33;;;3.90;99.90;;;;;;10456285;28;20217;-82
2020/12/07 21:56:08;;;;;;;14.67;13.17;;;4.00;99.90;;;;;;10453080;28;20277;-82
2020/12/07 22:01:10;;;;;;;14.57;13.10;;;4.10;99.90;;;;;;10460948;28;20281;-81
2020/12/07 22:06:13;;;;;;;13.70;12.30;;;4.20;99.90;;;;;;10456739;28;20307;-80
2020/12/07 22:11:22;;;;;;;13.30;11.83;;;4.20;99.90;;;;;;10456329;28;20217;-81
2020/12/07 22:16:24;;;;;;;17.30;14.10;;;4.30;99.90;;;;;;10439888;28;20739;-80
2020/12/07 22:21:26;;;;;;;17.67;14.10;;;4.30;99.90;;;;;;10430527;28;20303;-82
2020/12/07 22:26:28;;;;;;;16.30;13.90;;;4.40;99.90;;;;;;10445509;28;20201;-82
2020/12/07 22:31:30;;;;;;;17.23;13.70;;;4.50;99.90;;;;;;10446639;28;20236;-82
2020/12/07 22:36:32;;;;;;;14.57;12.80;;;4.50;99.90;;;;;;10427184;28;20569;-82
2020/12/07 22:41:34;;;;;;;16.53;13.87;;;4.60;99.90;;;;;;10463896;28;20225;-80
2020/12/07 22:46:36;;;;;;;16.43;14.33;;;4.70;99.90;;;;;;10493847;28;20235;-81
2020/12/07 22:51:39;;;;;;;16.47;14.33;;;4.70;99.90;;;;;;10448361;28;20231;-81
2020/12/07 22:56:40;;;;;;;17.53;14.23;;;4.80;99.90;;;;;;10436898;28;20246;-82
2020/12/07 23:01:42;;;;;;;14.70;12.80;;;4.80;99.90;;;;;;10391839;28;20701;-82
2020/12/07 23:06:45;;;;;;;15.33;13.70;;;4.80;99.90;;;;;;10425283;28;20654;-81
2020/12/07 23:11:46;;;;;;;14.53;12.90;;;4.80;99.90;;;;;;10421299;28;20677;-82
2020/12/07 23:16:48;;;;;;;15.40;12.90;;;4.90;99.90;;;;;;10490918;28;20207;-81
2020/12/07 23:21:51;;;;;;;16.40;13.53;;;4.90;99.90;;;;;;10493865;28;20231;-80
2020/12/07 23:26:52;;;;;;;14.83;13.33;;;5.00;99.90;;;;;;10448407;28;20236;-82
2020/12/07 23:31:54;;;;;;;14.53;13.03;;;5.00;99.90;;;;;;10449494;28;20712;-83
2020/12/07 23:36:57;;;;;;;16.03;14.27;;;5.10;99.90;;;;;;10470389;28;20288;-82
2020/12/07 23:42:00;;;;;;;14.77;13.17;;;5.10;99.90;;;;;;10462651;28;20248;-81
2020/12/07 23:47:01;;;;;;;14.90;13.30;;;5.10;99.90;;;;;;10456847;28;20204;-81
2020/12/07 23:52:04;;;;;;;13.97;12.50;;;5.20;99.90;;;;;;10420073;28;20222;-81
2020/12/07 23:57:06;;;;;;;14.80;13.13;;;5.20;99.90;;;;;;10453642;28;20205;-81
